Time;durP1;ratioP1;P1;durP2;ratioP2;P2;SDS_P1;SDS_P2;PMS_P1;PMS_P2;Temp;Humidity;BMP_temperature;BMP_pressure;BME280_temperature;BME280_humidity;BME280_pressure;Samples;Min_cycle;Max_cycle;Signal;HPM_P1;HPM_P2
2023/04/28 00:01:46;;;;;;;5.17;4.63;;;;;;;;;;5072065;28;20877;-74
2023/04/28 00:04:14;;;;;;;5.10;4.37;;;;;;;;;;5071922;28;20209;-74
2023/04/28 00:06:42;;;;;;;5.07;4.57;;;;;;;;;;5071916;28;20689;-74
2023/04/28 00:09:09;;;;;;;4.77;4.37;;;;;;;;;;5054145;28;20197;-74
2023/04/28 00:11:37;;;;;;;5.43;4.77;;;;;;;;;;5054487;28;20941;-74
2023/04/28 00:14:05;;;;;;;7.50;5.37;;;;;;;;;;5071881;28;20320;-75
2023/04/28 00:16:32;;;;;;;5.57;4.60;;;;;;;;;;5071247;28;20296;-75
2023/04/28 00:18:59;;;;;;;5.73;5.17;;;;;;;;;;5071760;28;20236;-74
2023/04/28 00:21:27;;;;;;;5.60;5.10;;;;;;;;;;5071315;28;20216;-75
2023/04/28 00:23:55;;;;;;;6.70;5.90;;;;;;;;;;5071557;28;20723;-74
2023/04/28 00:26:22;;;;;;;8.30;6.60;;;;;;;;;;5072017;28;20214;-73
2023/04/28 00:28:49;;;;;;;7.97;7.07;;;;;;;;;;5071062;28;20217;-74
2023/04/28 00:31:17;;;;;;;9.03;7.30;;;;;;;;;;5071280;28;20230;-74
2023/04/28 00:33:44;;;;;;;7.80;6.80;;;;;;;;;;5071443;28;20287;-74
2023/04/28 00:36:12;;;;;;;7.97;6.87;;;;;;;;;;5071828;28;20235;-74
2023/04/28 00:38:39;;;;;;;7.53;6.50;;;;;;;;;;5071537;28;20729;-75
2023/04/28 00:41:06;;;;;;;8.97;5.60;;;;;;;;;;5070883;28;20275;-74
2023/04/28 00:43:43;;;;;;;7.43;5.90;;;;;;;;;;5053329;28;20201;-74
2023/04/28 00:46:13;;;;;;;6.93;6.23;;;;;;;;;;5071160;28;20248;-74
2023/04/28 00:48:40;;;;;;;7.13;5.80;;;;;;;;;;5070427;28;20205;-75
2023/04/28 00:51:08;;;;;;;5.43;4.57;;;;;;;;;;5071142;28;20294;-74
2023/04/28 00:53:35;;;;;;;6.67;4.67;;;;;;;;;;5070700;28;20771;-75
2023/04/28 00:56:03;;;;;;;6.80;5.13;;;;;;;;;;5069962;28;20205;-73
2023/04/28 00:58:30;;;;;;;6.27;5.30;;;;;;;;;;5070693;28;20308;-75
2023/04/28 01:01:04;;;;;;;6.43;5.27;;;;;;;;;;5070570;28;20229;-75
2023/04/28 01:03:36;;;;;;;5.73;5.13;;;;;;;;;;5070840;28;20204;-74
2023/04/28 01:06:05;;;;;;;6.73;5.17;;;;;;;;;;5070294;28;20190;-74
2023/04/28 01:08:33;;;;;;;5.30;4.80;;;;;;;;;;5069921;28;20201;-75
2023/04/28 01:11:01;;;;;;;4.70;4.17;;;;;;;;;;5069653;28;20257;-75
2023/04/28 01:13:28;;;;;;;6.17;4.40;;;;;;;;;;5070433;28;20666;-74
2023/04/28 01:15:55;;;;;;;6.47;4.47;;;;;;;;;;5069893;28;20206;-75
2023/04/28 01:18:24;;;;;;;4.97;4.30;;;;;;;;;;5069926;28;20205;-73
2023/04/28 01:20:51;;;;;;;4.90;4.40;;;;;;;;;;5069462;28;20698;-73
2023/04/28 01:23:18;;;;;;;4.80;4.23;;;;;;;;;;5069788;28;20201;-73
2023/04/28 01:25:45;;;;;;;5.20;4.20;;;;;;;;;;5069479;28;20300;-74
2023/04/28 01:28:13;;;;;;;6.70;4.40;;;;;;;;;;5069765;28;20216;-74
2023/04/28 01:30:40;;;;;;;5.10;3.87;;;;;;;;;;5069557;28;20966;-74
2023/04/28 01:33:07;;;;;;;4.70;4.30;;;;;;;;;;5069448;28;20325;-74
2023/04/28 01:35:35;;;;;;;4.83;4.37;;;;;;;;;;5051561;28;20197;-73
2023/04/28 01:38:02;;;;;;;5.07;4.27;;;;;;;;;;5069080;28;20232;-74
2023/04/28 01:40:29;;;;;;;6.77;4.20;;;;;;;;;;5069618;28;20289;-74
2023/04/28 01:42:57;;;;;;;4.30;3.90;;;;;;;;;;5069275;28;20296;-73
2023/04/28 01:45:24;;;;;;;5.03;3.93;;;;;;;;;;5069768;28;20205;-74
2023/04/28 01:47:51;;;;;;;4.33;4.03;;;;;;;;;;5069555;28;20691;-74
2023/04/28 01:50:19;;;;;;;4.70;4.30;;;;;;;;;;5069409;28;20247;-75
2023/04/28 01:52:46;;;;;;;4.90;4.40;;;;;;;;;;5069569;28;20206;-74
2023/04/28 01:55:13;;;;;;;5.50;4.30;;;;;;;;;;5069090;28;20206;-74
2023/04/28 01:57:40;;;;;;;4.30;4.00;;;;;;;;;;5068800;28;20240;-73
2023/04/28 02:00:08;;;;;;;7.27;5.90;;;;;;;;;;5069151;28;20449;-74
2023/04/28 02:02:35;;;;;;;5.97;4.50;;;;;;;;;;5069555;28;20205;-74
2023/04/28 02:05:03;;;;;;;4.57;4.10;;;;;;;;;;5069298;28;20201;-74
2023/04/28 02:07:30;;;;;;;4.80;4.30;;;;;;;;;;5068907;28;20202;-73
2023/04/28 02:09:57;;;;;;;4.43;4.03;;;;;;;;;;5069131;28;20256;-75
2023/04/28 02:12:25;;;;;;;3.93;3.63;;;;;;;;;;5068867;28;20205;-73
2023/04/28 02:14:52;;;;;;;5.00;4.17;;;;;;;;;;5069302;28;20260;-74
2023/04/28 02:17:19;;;;;;;4.80;4.30;;;;;;;;;;5069437;28;20267;-74
2023/04/28 02:19:47;;;;;;;4.60;3.60;;;;;;;;;;5051356;28;20222;-73
2023/04/28 02:22:14;;;;;;;4.00;3.70;;;;;;;;;;5069064;28;20237;-73
2023/04/28 02:24:42;;;;;;;5.63;4.50;;;;;;;;;;5069006;28;20210;-75
2023/04/28 02:27:09;;;;;;;9.87;7.53;;;;;;;;;;5069564;28;20293;-72
2023/04/28 02:29:36;;;;;;;18.63;10.90;;;;;;;;;;5069259;28;20591;-75
2023/04/28 02:32:03;;;;;;;14.17;9.60;;;;;;;;;;5069175;28;20251;-74
2023/04/28 02:34:31;;;;;;;11.50;8.90;;;;;;;;;;5051632;28;20647;-74
2023/04/28 02:36:58;;;;;;;11.00;7.73;;;;;;;;;;5069275;28;20205;-75
2023/04/28 02:39:26;;;;;;;8.73;6.80;;;;;;;;;;5069022;28;20217;-75
2023/04/28 02:41:53;;;;;;;8.27;6.40;;;;;;;;;;5069613;28;20659;-74
2023/04/28 02:44:20;;;;;;;7.73;5.93;;;;;;;;;;5069055;28;20300;-74
2023/04/28 02:46:48;;;;;;;6.70;5.57;;;;;;;;;;5069231;28;20259;-75
2023/04/28 02:49:15;;;;;;;11.57;8.10;;;;;;;;;;5069176;28;20233;-74
2023/04/28 02:51:42;;;;;;;13.43;11.53;;;;;;;;;;5069303;28;20600;-75
2023/04/28 02:54:10;;;;;;;18.33;14.53;;;;;;;;;;5069604;28;20287;-75
2023/04/28 02:56:39;;;;;;;9.37;8.13;;;;;;;;;;5069099;28;20627;-73
2023/04/28 02:59:06;;;;;;;6.27;5.07;;;;;;;;;;5069347;28;20216;-74
2023/04/28 03:01:34;;;;;;;5.03;4.10;;;;;;;;;;5069368;28;20216;-75
2023/04/28 03:04:01;;;;;;;5.00;4.00;;;;;;;;;;5068918;28;20213;-74
2023/04/28 03:06:30;;;;;;;9.27;5.97;;;;;;;;;;5068872;28;20201;-73
2023/04/28 03:08:57;;;;;;;5.13;4.63;;;;;;;;;;5068718;28;20235;-74
2023/04/28 03:11:25;;;;;;;7.83;5.50;;;;;;;;;;5068924;28;20659;-74
2023/04/28 03:13:52;;;;;;;5.07;4.57;;;;;;;;;;5068356;28;20256;-75
2023/04/28 03:16:19;;;;;;;5.27;4.77;;;;;;;;;;5067807;28;20233;-74
2023/04/28 03:18:46;;;;;;;5.97;5.33;;;;;;;;;;5063384;28;20248;-74
2023/04/28 03:21:14;;;;;;;5.30;4.80;;;;;;;;;;5079112;28;20269;-74
2023/04/28 03:23:41;;;;;;;6.23;4.83;;;;;;;;;;5059603;28;20233;-74
2023/04/28 03:26:08;;;;;;;8.00;6.10;;;;;;;;;;5091754;28;20242;-74
2023/04/28 03:28:36;;;;;;;8.17;7.07;;;;;;;;;;5091470;28;20304;-74
2023/04/28 03:31:03;;;;;;;8.67;5.83;;;;;;;;;;5091492;28;20271;-75
2023/04/28 03:33:30;;;;;;;5.60;4.90;;;;;;;;;;5072561;28;20256;-74
2023/04/28 03:35:57;;;;;;;5.60;4.97;;;;;;;;;;5091777;28;20201;-75
2023/04/28 03:38:25;;;;;;;4.67;3.70;;;;;;;;;;5084636;28;20210;-75
2023/04/28 03:40:53;;;;;;;4.80;3.70;;;;;;;;;;5071377;28;20225;-74
2023/04/28 03:43:20;;;;;;;4.77;3.70;;;;;;;;;;5070948;28;20729;-74
2023/04/28 03:45:48;;;;;;;4.43;3.60;;;;;;;;;;5071340;28;20323;-74
2023/04/28 03:48:15;;;;;;;4.07;3.53;;;;;;;;;;5053493;28;20216;-74
2023/04/28 03:50:44;;;;;;;6.07;4.00;;;;;;;;;;5071132;28;20241;-74
2023/04/28 03:53:11;;;;;;;3.60;3.30;;;;;;;;;;5070998;28;20300;-74
2023/04/28 03:55:38;;;;;;;5.23;4.10;;;;;;;;;;5070501;28;20248;-74
2023/04/28 03:58:06;;;;;;;4.57;3.93;;;;;;;;;;5052936;28;20660;-74
2023/04/28 04:00:33;;;;;;;4.60;3.97;;;;;;;;;;5071059;28;20300;-75
2023/04/28 04:03:00;;;;;;;6.13;4.27;;;;;;;;;;5064497;28;20201;-75
2023/04/28 04:05:28;;;;;;;6.10;4.80;;;;;;;;;;5070958;28;20201;-75
2023/04/28 04:07:55;;;;;;;5.07;4.40;;;;;;;;;;5070772;28;20550;-74
2023/04/28 04:10:22;;;;;;;5.40;4.33;;;;;;;;;;5070519;28;20268;-74
2023/04/28 04:12:50;;;;;;;4.63;4.23;;;;;;;;;;5070739;28;20206;-74
2023/04/28 04:15:17;;;;;;;4.70;4.20;;;;;;;;;;5071151;28;20691;-74
2023/04/28 04:17:44;;;;;;;6.60;4.97;;;;;;;;;;5067357;28;20746;-75
2023/04/28 04:20:11;;;;;;;5.10;4.60;;;;;;;;;;5068741;28;20229;-73
2023/04/28 04:22:39;;;;;;;5.60;4.70;;;;;;;;;;5090956;28;20300;-74
2023/04/28 04:25:06;;;;;;;7.27;5.00;;;;;;;;;;5090958;28;20848;-75
2023/04/28 04:27:33;;;;;;;6.47;5.30;;;;;;;;;;5090399;28;20205;-75
2023/04/28 04:30:00;;;;;;;5.83;5.23;;;;;;;;;;5078564;28;20284;-74
2023/04/28 04:32:28;;;;;;;8.77;5.80;;;;;;;;;;5046055;28;20616;-75
2023/04/28 04:34:56;;;;;;;7.40;5.93;;;;;;;;;;5074428;28;20221;-74
2023/04/28 04:37:23;;;;;;;7.97;5.90;;;;;;;;;;5090442;28;20293;-73
2023/04/28 04:39:51;;;;;;;6.67;5.97;;;;;;;;;;5090114;28;20225;-75
2023/04/28 04:42:18;;;;;;;7.33;5.73;;;;;;;;;;5090326;28;20201;-76
2023/04/28 04:44:52;;;;;;;8.70;6.43;;;;;;;;;;5083069;28;20202;-74
2023/04/28 04:47:19;;;;;;;9.43;6.37;;;;;;;;;;5048872;28;20678;-74
2023/04/28 04:49:48;;;;;;;7.80;6.27;;;;;;;;;;5069895;28;20761;-75
2023/04/28 04:52:15;;;;;;;7.27;6.57;;;;;;;;;;5069900;28;20263;-74
2023/04/28 04:54:42;;;;;;;8.73;7.37;;;;;;;;;;5070072;28;20236;-74
2023/04/28 04:57:10;;;;;;;8.97;7.43;;;;;;;;;;5070024;28;20594;-74
2023/04/28 04:59:38;;;;;;;11.67;7.57;;;;;;;;;;5069290;28;20305;-74
2023/04/28 05:02:05;;;;;;;8.43;7.53;;;;;;;;;;5064627;28;20202;-74
2023/04/28 05:04:32;;;;;;;8.43;7.30;;;;;;;;;;5073500;28;20198;-74
2023/04/28 05:06:59;;;;;;;8.80;7.90;;;;;;;;;;5069735;28;20220;-74
2023/04/28 05:09:28;;;;;;;10.87;8.00;;;;;;;;;;5069553;28;20231;-74
2023/04/28 05:11:55;;;;;;;8.50;7.50;;;;;;;;;;5069849;28;20212;-74
2023/04/28 05:14:23;;;;;;;10.60;8.10;;;;;;;;;;5069878;28;20312;-74
2023/04/28 05:16:50;;;;;;;10.83;8.63;;;;;;;;;;5069482;28;20284;-74
2023/04/28 05:19:17;;;;;;;11.00;8.57;;;;;;;;;;5074052;28;20311;-74
2023/04/28 05:21:46;;;;;;;12.00;9.37;;;;;;;;;;5071201;28;20263;-74
2023/04/28 05:24:14;;;;;;;9.73;8.70;;;;;;;;;;5069003;28;20312;-74
2023/04/28 05:26:42;;;;;;;11.87;9.30;;;;;;;;;;5069303;28;20686;-73
2023/04/28 05:29:09;;;;;;;13.57;9.47;;;;;;;;;;5068757;28;20248;-74
2023/04/28 05:31:36;;;;;;;12.73;9.67;;;;;;;;;;5064393;28;20240;-75
2023/04/28 05:34:04;;;;;;;15.70;11.43;;;;;;;;;;5084084;28;20679;-74
2023/04/28 05:36:31;;;;;;;14.70;10.87;;;;;;;;;;5069552;28;20247;-74
2023/04/28 05:38:59;;;;;;;12.40;10.13;;;;;;;;;;5068336;28;20238;-75
2023/04/28 05:41:26;;;;;;;12.60;10.20;;;;;;;;;;5068412;28;20251;-74
2023/04/28 05:43:53;;;;;;;10.57;9.43;;;;;;;;;;5068825;28;20284;-74
2023/04/28 05:46:21;;;;;;;11.17;9.73;;;;;;;;;;5051320;28;20206;-75
2023/04/28 05:48:57;;;;;;;10.00;8.90;;;;;;;;;;5061393;28;20190;-74
2023/04/28 05:51:24;;;;;;;10.80;9.70;;;;;;;;;;5069140;28;20272;-74
2023/04/28 05:53:51;;;;;;;10.53;9.03;;;;;;;;;;5069150;28;20209;-74
2023/04/28 05:56:19;;;;;;;11.67;8.63;;;;;;;;;;5089172;28;20644;-74
2023/04/28 05:58:48;;;;;;;9.43;8.07;;;;;;;;;;5088178;28;20201;-74
2023/04/28 06:01:16;;;;;;;8.00;7.20;;;;;;;;;;5086133;28;20315;-74
2023/04/28 06:03:43;;;;;;;7.70;6.90;;;;;;;;;;5062383;28;20652;-73
2023/04/28 06:06:11;;;;;;;7.03;6.37;;;;;;;;;;5068526;28;20224;-74
2023/04/28 06:08:39;;;;;;;6.90;6.30;;;;;;;;;;5050249;28;20693;-75
2023/04/28 06:11:06;;;;;;;6.73;6.13;;;;;;;;;;5068171;28;20283;-75
2023/04/28 06:13:33;;;;;;;6.43;5.87;;;;;;;;;;5068783;28;20233;-74
2023/04/28 06:16:01;;;;;;;7.03;6.33;;;;;;;;;;5068553;28;20772;-74
2023/04/28 06:18:31;;;;;;;7.83;6.60;;;;;;;;;;5070888;28;20216;-74
2023/04/28 06:20:58;;;;;;;6.87;6.23;;;;;;;;;;5087580;28;20232;-75
2023/04/28 06:23:26;;;;;;;7.13;6.43;;;;;;;;;;5088542;28;20295;-75
2023/04/28 06:25:53;;;;;;;7.27;6.57;;;;;;;;;;5070968;28;20211;-75
2023/04/28 06:28:20;;;;;;;7.40;6.70;;;;;;;;;;5082263;28;20717;-74
2023/04/28 06:30:47;;;;;;;7.50;6.80;;;;;;;;;;5068640;28;20375;-74
2023/04/28 06:33:15;;;;;;;7.80;7.00;;;;;;;;;;5073391;28;20292;-74
2023/04/28 06:35:42;;;;;;;6.93;6.33;;;;;;;;;;5088441;28;20311;-74
2023/04/28 06:38:09;;;;;;;7.13;6.53;;;;;;;;;;5087994;28;20402;-74
2023/04/28 06:40:38;;;;;;;7.33;6.63;;;;;;;;;;5088141;28;20221;-75
2023/04/28 06:43:05;;;;;;;7.13;6.53;;;;;;;;;;5075039;28;20221;-74
2023/04/28 06:45:33;;;;;;;6.33;5.80;;;;;;;;;;5050833;28;20688;-74
2023/04/28 06:48:01;;;;;;;6.87;6.27;;;;;;;;;;5068104;28;20251;-75
2023/04/28 06:50:28;;;;;;;7.00;6.30;;;;;;;;;;5050983;28;20706;-75
2023/04/28 06:52:57;;;;;;;6.57;6.00;;;;;;;;;;5069112;28;20251;-75
2023/04/28 06:55:25;;;;;;;6.77;6.17;;;;;;;;;;5072469;28;20220;-75
2023/04/28 06:57:52;;;;;;;5.90;5.40;;;;;;;;;;5073061;28;20292;-73
2023/04/28 07:00:20;;;;;;;5.70;5.10;;;;;;;;;;5073161;28;20244;-74
2023/04/28 07:02:47;;;;;;;4.83;4.43;;;;;;;;;;5072817;28;20634;-73
2023/04/28 07:05:15;;;;;;;4.77;4.37;;;;;;;;;;5072619;28;20209;-73
2023/04/28 07:07:43;;;;;;;5.17;4.67;;;;;;;;;;5073099;28;20262;-73
2023/04/28 07:10:10;;;;;;;5.10;4.70;;;;;;;;;;5072248;28;20279;-73
2023/04/28 07:12:37;;;;;;;5.13;4.63;;;;;;;;;;5071970;28;20307;-74
2023/04/28 07:15:05;;;;;;;4.93;4.43;;;;;;;;;;5071651;28;20265;-73
2023/04/28 07:17:32;;;;;;;6.57;5.00;;;;;;;;;;5072556;28;20205;-73
2023/04/28 07:19:59;;;;;;;4.73;4.33;;;;;;;;;;5071952;28;20883;-73
2023/04/28 07:22:27;;;;;;;4.70;4.20;;;;;;;;;;5072073;28;20186;-73
2023/04/28 07:24:54;;;;;;;3.80;3.50;;;;;;;;;;5072108;28;20432;-73
2023/04/28 07:27:22;;;;;;;3.83;3.53;;;;;;;;;;5071967;28;20206;-73
2023/04/28 07:29:49;;;;;;;4.20;3.90;;;;;;;;;;5071625;28;20230;-73
2023/04/28 07:32:16;;;;;;;4.33;3.93;;;;;;;;;;5071857;28;20209;-73
2023/04/28 07:34:44;;;;;;;4.97;4.43;;;;;;;;;;5071952;28;20264;-71
2023/04/28 07:37:11;;;;;;;4.83;4.43;;;;;;;;;;5071539;28;20252;-73
2023/04/28 07:39:40;;;;;;;5.37;4.90;;;;;;;;;;5071700;28;20225;-72
2023/04/28 07:42:07;;;;;;;5.40;4.97;;;;;;;;;;5071869;28;20201;-74
2023/04/28 07:44:35;;;;;;;5.93;4.97;;;;;;;;;;5071586;28;20868;-72
2023/04/28 07:47:03;;;;;;;5.60;5.10;;;;;;;;;;5071677;28;20209;-73
2023/04/28 07:49:30;;;;;;;6.00;5.43;;;;;;;;;;5072136;28;20268;-72
2023/04/28 07:51:57;;;;;;;6.17;5.53;;;;;;;;;;5071811;28;20202;-72
2023/04/28 07:54:25;;;;;;;5.73;5.23;;;;;;;;;;5071712;28;20659;-73
2023/04/28 07:56:52;;;;;;;6.40;5.80;;;;;;;;;;5071771;28;20555;-73
2023/04/28 07:59:20;;;;;;;6.30;5.70;;;;;;;;;;5071807;28;20789;-72
2023/04/28 08:01:47;;;;;;;6.47;5.87;;;;;;;;;;5071855;28;20201;-74
2023/04/28 08:04:14;;;;;;;6.33;5.73;;;;;;;;;;5070704;28;20201;-73
2023/04/28 08:06:42;;;;;;;6.30;5.67;;;;;;;;;;5053979;28;20577;-73
2023/04/28 08:09:09;;;;;;;6.40;5.80;;;;;;;;;;5071992;28;20240;-73
2023/04/28 08:11:36;;;;;;;5.83;5.33;;;;;;;;;;5071530;28;20243;-73
2023/04/28 08:14:04;;;;;;;6.73;5.93;;;;;;;;;;5072051;28;20209;-73
2023/04/28 08:16:31;;;;;;;5.97;5.47;;;;;;;;;;5053988;28;20236;-73
2023/04/28 08:18:59;;;;;;;6.27;5.67;;;;;;;;;;5071688;28;20613;-73
2023/04/28 08:21:26;;;;;;;5.77;5.27;;;;;;;;;;5070956;28;20218;-73
2023/04/28 08:23:54;;;;;;;6.43;5.83;;;;;;;;;;5070756;28;20207;-73
2023/04/28 08:26:23;;;;;;;6.07;5.57;;;;;;;;;;5053662;28;20202;-73
2023/04/28 08:28:51;;;;;;;5.93;5.43;;;;;;;;;;5071060;28;20259;-74
2023/04/28 08:31:18;;;;;;;5.63;5.13;;;;;;;;;;5070886;28;20252;-73
2023/04/28 08:33:47;;;;;;;5.63;5.10;;;;;;;;;;5070903;28;20224;-73
2023/04/28 08:36:14;;;;;;;5.53;5.03;;;;;;;;;;5071100;28;20859;-73
2023/04/28 08:38:42;;;;;;;5.23;4.73;;;;;;;;;;5070795;28;20213;-73
2023/04/28 08:41:10;;;;;;;5.67;5.10;;;;;;;;;;5070896;28;20225;-74
2023/04/28 08:43:40;;;;;;;5.30;4.40;;;;;;;;;;5070928;28;20205;-73
2023/04/28 08:46:07;;;;;;;5.33;4.40;;;;;;;;;;5070683;28;20244;-72
2023/04/28 08:48:43;;;;;;;4.67;4.27;;;;;;;;;;5071059;28;20206;-73
2023/04/28 08:51:15;;;;;;;4.10;3.80;;;;;;;;;;5071095;28;20261;-73
2023/04/28 08:53:44;;;;;;;3.50;3.30;;;;;;;;;;5071064;28;20551;-73
2023/04/28 08:56:35;;;;;;;3.30;3.10;;;;;;;;;;5070491;28;20603;-73
2023/04/28 08:59:04;;;;;;;3.23;3.03;;;;;;;;;;5070599;28;20232;-73
2023/04/28 09:01:32;;;;;;;3.90;3.00;;;;;;;;;;5070915;28;20205;-74
2023/04/28 09:04:02;;;;;;;3.97;3.20;;;;;;;;;;5071197;28;20699;-73
2023/04/28 09:06:37;;;;;;;2.77;2.67;;;;;;;;;;5052678;28;20213;-73
2023/04/28 09:09:21;;;;;;;2.73;2.60;;;;;;;;;;5070018;28;20212;-73
2023/04/28 09:11:58;;;;;;;2.90;2.70;;;;;;;;;;5069858;28;20209;-73
2023/04/28 09:14:26;;;;;;;2.80;2.60;;;;;;;;;;5070135;28;20204;-73
2023/04/28 09:16:54;;;;;;;3.07;2.87;;;;;;;;;;5070139;28;20604;-71
2023/04/28 09:19:22;;;;;;;2.70;2.50;;;;;;;;;;5070129;28;20257;-73
2023/04/28 09:21:56;;;;;;;2.80;2.60;;;;;;;;;;5069790;28;20620;-73
2023/04/28 09:24:26;;;;;;;3.57;2.77;;;;;;;;;;5070273;28;20283;-73
2023/04/28 09:26:54;;;;;;;3.20;2.90;;;;;;;;;;5069889;28;20563;-73
2023/04/28 09:29:22;;;;;;;2.70;2.60;;;;;;;;;;5069952;28;20229;-72
2023/04/28 09:31:49;;;;;;;2.77;2.57;;;;;;;;;;5051598;28;20201;-74
2023/04/28 09:34:17;;;;;;;2.73;2.53;;;;;;;;;;5069645;28;20296;-74
2023/04/28 09:36:44;;;;;;;2.20;2.10;;;;;;;;;;5069522;28;20263;-73
2023/04/28 09:39:11;;;;;;;2.13;2.03;;;;;;;;;;5069043;28;20241;-73
2023/04/28 09:41:40;;;;;;;2.40;2.20;;;;;;;;;;5069632;28;20292;-73
2023/04/28 09:44:11;;;;;;;2.10;1.80;;;;;;;;;;5070086;28;20201;-73
2023/04/28 09:46:39;;;;;;;2.10;2.00;;;;;;;;;;5069837;28;20284;-73
2023/04/28 09:49:07;;;;;;;1.63;1.63;;;;;;;;;;5051387;28;20248;-73
2023/04/28 09:51:35;;;;;;;1.80;1.70;;;;;;;;;;5069745;28;20641;-73
2023/04/28 09:54:03;;;;;;;1.67;1.57;;;;;;;;;;5069701;28;20205;-72
2023/04/28 09:56:30;;;;;;;1.40;1.40;;;;;;;;;;5069285;28;20573;-71
2023/04/28 09:58:58;;;;;;;2.10;1.37;;;;;;;;;;5069458;28;20623;-73
2023/04/28 10:01:34;;;;;;;1.20;1.20;;;;;;;;;;5051944;28;20208;-73
2023/04/28 10:04:03;;;;;;;1.20;1.20;;;;;;;;;;5069558;28;20197;-73
2023/04/28 10:06:33;;;;;;;1.07;1.07;;;;;;;;;;5069757;28;20970;-73
2023/04/28 10:09:01;;;;;;;1.03;1.00;;;;;;;;;;5069452;28;20553;-73
2023/04/28 10:11:29;;;;;;;1.50;1.20;;;;;;;;;;5069334;28;20213;-73
2023/04/28 10:13:56;;;;;;;1.40;1.30;;;;;;;;;;5069127;28;20262;-74
2023/04/28 10:16:24;;;;;;;1.60;1.30;;;;;;;;;;5068920;28;20232;-73
2023/04/28 10:18:52;;;;;;;1.08;1.08;;;;;;;;;;5069317;28;20208;-73
2023/04/28 10:21:21;;;;;;;2.33;1.20;;;;;;;;;;5068810;28;20582;-73
2023/04/28 10:24:07;;;;;;;0.90;0.90;;;;;;;;;;5051320;28;20281;-73
2023/04/28 10:26:53;;;;;;;0.90;0.90;;;;;;;;;;5069323;28;20275;-73
2023/04/28 10:29:25;;;;;;;0.80;0.80;;;;;;;;;;5068817;28;20284;-73
2023/04/28 10:32:11;;;;;;;0.70;0.70;;;;;;;;;;5068991;28;20228;-72
2023/04/28 10:34:38;;;;;;;3.92;0.93;;;;;;;;;;5069190;28;20891;-73
2023/04/28 10:37:06;;;;;;;0.70;0.70;;;;;;;;;;5069482;28;20283;-73
2023/04/28 10:39:33;;;;;;;0.82;0.80;;;;;;;;;;5068859;28;20230;-73
2023/04/28 10:42:01;;;;;;;0.85;0.60;;;;;;;;;;5068868;28;20213;-73
2023/04/28 10:44:28;;;;;;;0.60;0.60;;;;;;;;;;5069764;28;20205;-74
2023/04/28 10:47:08;;;;;;;0.68;0.68;;;;;;;;;;5068972;28;20217;-74
2023/04/28 10:49:51;;;;;;;1.08;1.00;;;;;;;;;;5068969;28;20220;-73
2023/04/28 10:52:37;;;;;;;0.60;0.60;;;;;;;;;;5051583;28;20205;-74
2023/04/28 10:55:22;;;;;;;0.98;0.77;;;;;;;;;;5069106;28;20262;-73
2023/04/28 10:58:10;;;;;;;0.88;0.88;;;;;;;;;;5069002;28;20261;-74
2023/04/28 11:00:38;;;;;;;0.98;0.98;;;;;;;;;;5058700;28;20658;-74
2023/04/28 11:03:06;;;;;;;0.80;0.80;;;;;;;;;;5068765;28;20255;-74
2023/04/28 11:05:34;;;;;;;0.80;0.80;;;;;;;;;;5068436;28;20201;-74
2023/04/28 11:08:20;;;;;;;0.80;0.80;;;;;;;;;;5051328;28;20249;-74
2023/04/28 11:11:06;;;;;;;1.17;1.17;;;;;;;;;;5069103;28;20233;-74
2023/04/28 11:13:33;;;;;;;0.88;0.88;;;;;;;;;;5069984;28;20301;-75
2023/04/28 11:16:04;;;;;;;0.77;0.77;;;;;;;;;;5069040;28;20313;-74
2023/04/28 11:18:50;;;;;;;0.90;0.90;;;;;;;;;;5068939;28;20210;-73
2023/04/28 11:21:22;;;;;;;0.60;0.60;;;;;;;;;;5068637;28;20280;-74
2023/04/28 11:23:49;;;;;;;0.73;0.73;;;;;;;;;;5068931;28;20236;-74
2023/04/28 11:26:18;;;;;;;1.75;0.90;;;;;;;;;;5068502;28;20245;-74
2023/04/28 11:28:48;;;;;;;0.52;0.52;;;;;;;;;;5069374;28;20296;-73
2023/04/28 11:31:18;;;;;;;0.60;0.60;;;;;;;;;;5068711;28;20233;-74
2023/04/28 11:33:46;;;;;;;0.70;0.70;;;;;;;;;;5068707;28;20259;-74
2023/04/28 11:36:27;;;;;;;0.70;0.70;;;;;;;;;;5069228;28;20226;-74
2023/04/28 11:38:55;;;;;;;2.90;2.70;;;;;;;;;;5068951;28;20284;-75
2023/04/28 11:41:23;;;;;;;2.63;2.42;;;;;;;;;;5054168;28;20221;-74
2023/04/28 11:43:50;;;;;;;5.18;3.65;;;;;;;;;;5072082;28;20259;-74
2023/04/28 11:46:24;;;;;;;9.07;5.28;;;;;;;;;;5072648;28;20259;-74
2023/04/28 11:49:05;;;;;;;0.90;0.90;;;;;;;;;;5072481;28;20213;-74
2023/04/28 11:51:32;;;;;;;1.38;0.73;;;;;;;;;;5072244;28;20277;-74
2023/04/28 11:54:01;;;;;;;1.00;0.90;;;;;;;;;;5054584;28;20602;-73
2023/04/28 11:56:28;;;;;;;0.77;0.77;;;;;;;;;;5071588;28;20229;-74
2023/04/28 11:59:16;;;;;;;0.80;0.80;;;;;;;;;;5072080;28;20297;-74
2023/04/28 12:01:44;;;;;;;0.70;0.70;;;;;;;;;;5071796;28;20241;-74
2023/04/28 12:04:12;;;;;;;0.55;0.55;;;;;;;;;;5053883;28;20248;-74
2023/04/28 12:06:41;;;;;;;0.65;0.65;;;;;;;;;;5071763;28;20247;-74
2023/04/28 12:09:15;;;;;;;0.60;0.60;;;;;;;;;;5071832;28;20366;-74
2023/04/28 12:12:11;;;;;;;0.73;0.70;;;;;;;;;;5053868;28;20221;-74
2023/04/28 12:14:58;;;;;;;0.85;0.73;;;;;;;;;;5058616;28;20259;-74
2023/04/28 12:17:26;;;;;;;0.60;0.60;;;;;;;;;;5053987;28;20268;-74
2023/04/28 12:19:57;;;;;;;0.55;0.50;;;;;;;;;;5071509;28;20229;-74
2023/04/28 12:22:25;;;;;;;0.80;0.80;;;;;;;;;;5053573;28;20614;-74
2023/04/28 12:25:11;;;;;;;2.58;2.38;;;;;;;;;;5071529;28;20235;-74
2023/04/28 12:27:39;;;;;;;6.10;5.30;;;;;;;;;;5071667;28;20210;-74
2023/04/28 12:30:07;;;;;;;7.20;5.82;;;;;;;;;;5072258;28;20236;-74
2023/04/28 12:32:38;;;;;;;9.23;7.72;;;;;;;;;;5071435;28;20312;-75
2023/04/28 12:35:06;;;;;;;5.55;4.63;;;;;;;;;;5071664;28;20667;-74
2023/04/28 12:37:33;;;;;;;2.28;1.85;;;;;;;;;;5070942;28;20229;-74
2023/04/28 12:40:01;;;;;;;2.17;1.98;;;;;;;;;;5071522;28;20221;-75
2023/04/28 12:42:28;;;;;;;0.80;0.80;;;;;;;;;;5071293;28;20205;-73
2023/04/28 12:44:56;;;;;;;0.85;0.85;;;;;;;;;;5071392;28;20241;-74
2023/04/28 12:47:23;;;;;;;1.60;1.50;;;;;;;;;;5070793;28;20249;-74
2023/04/28 12:49:52;;;;;;;3.50;3.30;;;;;;;;;;5070600;28;20232;-74
2023/04/28 12:52:19;;;;;;;1.70;1.60;;;;;;;;;;5070583;28;20686;-74
2023/04/28 12:54:47;;;;;;;1.00;1.00;;;;;;;;;;5053287;28;20304;-72
2023/04/28 12:57:16;;;;;;;0.70;0.70;;;;;;;;;;5070957;28;20252;-74
2023/04/28 12:59:44;;;;;;;3.92;3.47;;;;;;;;;;5069145;28;20272;-75
2023/04/28 13:02:13;;;;;;;1.85;1.75;;;;;;;;;;5065980;28;20217;-74
2023/04/28 13:04:41;;;;;;;0.80;0.80;;;;;;;;;;5082123;28;20197;-73
2023/04/28 13:07:09;;;;;;;0.85;0.70;;;;;;;;;;5076586;28;20313;-74
2023/04/28 13:09:36;;;;;;;1.10;1.10;;;;;;;;;;5068999;28;20222;-75
2023/04/28 13:12:04;;;;;;;1.40;1.40;;;;;;;;;;5069644;28;20213;-75
2023/04/28 13:14:32;;;;;;;0.73;0.73;;;;;;;;;;5069701;28;20260;-74
2023/04/28 13:16:59;;;;;;;0.60;0.60;;;;;;;;;;5069542;28;20316;-74
2023/04/28 13:19:27;;;;;;;10.40;9.13;;;;;;;;;;5069176;28;20759;-75
2023/04/28 13:21:54;;;;;;;4.90;4.20;;;;;;;;;;5069595;28;20569;-74
2023/04/28 13:24:21;;;;;;;2.53;1.90;;;;;;;;;;5069350;28;20372;-75
2023/04/28 13:26:49;;;;;;;1.92;1.48;;;;;;;;;;5069419;28;20220;-74
2023/04/28 13:29:17;;;;;;;0.80;0.80;;;;;;;;;;5051205;28;20299;-74
2023/04/28 13:31:44;;;;;;;0.80;0.80;;;;;;;;;;5064133;28;20668;-74
2023/04/28 13:34:14;;;;;;;0.68;0.68;;;;;;;;;;5061273;28;20292;-74
2023/04/28 13:36:43;;;;;;;0.82;0.82;;;;;;;;;;5065397;28;20249;-74
2023/04/28 13:39:10;;;;;;;0.80;0.80;;;;;;;;;;5068063;28;20197;-74
2023/04/28 13:41:37;;;;;;;1.40;0.80;;;;;;;;;;5050038;28;20208;-74
2023/04/28 13:44:05;;;;;;;0.80;0.80;;;;;;;;;;5049270;28;20221;-74
2023/04/28 13:46:32;;;;;;;0.80;0.80;;;;;;;;;;5031614;28;20210;-75
2023/04/28 13:48:59;;;;;;;0.80;0.80;;;;;;;;;;5048480;28;20241;-75
2023/04/28 13:51:27;;;;;;;1.85;1.30;;;;;;;;;;5064243;28;20771;-75
2023/04/28 13:53:55;;;;;;;1.50;1.40;;;;;;;;;;5049559;28;20257;-74
2023/04/28 13:56:22;;;;;;;1.85;1.70;;;;;;;;;;5048480;28;20621;-74
2023/04/28 13:58:50;;;;;;;2.10;1.80;;;;;;;;;;5048545;28;20726;-74
2023/04/28 14:01:17;;;;;;;0.73;0.70;;;;;;;;;;5030773;28;20222;-74
2023/04/28 14:03:44;;;;;;;0.93;0.93;;;;;;;;;;5079021;28;20201;-74
2023/04/28 14:06:12;;;;;;;1.30;1.23;;;;;;;;;;5088543;28;20205;-74
2023/04/28 14:08:39;;;;;;;0.82;0.82;;;;;;;;;;5071308;28;20260;-74
2023/04/28 14:11:08;;;;;;;0.70;0.70;;;;;;;;;;5068400;28;20229;-74
2023/04/28 14:13:35;;;;;;;10.20;6.60;;;;;;;;;;5068684;28;20670;-74
2023/04/28 14:16:02;;;;;;;2.30;2.20;;;;;;;;;;5068306;28;20296;-74
2023/04/28 14:18:31;;;;;;;2.60;1.92;;;;;;;;;;5068498;28;20198;-74
2023/04/28 14:21:00;;;;;;;1.38;1.27;;;;;;;;;;5067967;28;20230;-74
2023/04/28 14:23:28;;;;;;;1.15;1.15;;;;;;;;;;5050183;28;20208;-75
2023/04/28 14:25:56;;;;;;;1.00;1.00;;;;;;;;;;5069019;28;20205;-74
2023/04/28 14:28:24;;;;;;;0.85;0.82;;;;;;;;;;5082567;28;20201;-74
2023/04/28 14:30:53;;;;;;;1.30;1.23;;;;;;;;;;5070207;28;20218;-74
2023/04/28 14:33:20;;;;;;;1.63;0.80;;;;;;;;;;5067420;28;20229;-75
2023/04/28 14:35:47;;;;;;;1.55;1.00;;;;;;;;;;5064386;28;20198;-74
2023/04/28 14:38:15;;;;;;;1.13;0.77;;;;;;;;;;5068030;28;20222;-74
2023/04/28 14:40:42;;;;;;;1.70;1.60;;;;;;;;;;5068916;28;20264;-74
2023/04/28 14:43:09;;;;;;;2.45;2.25;;;;;;;;;;5088941;28;20247;-74
2023/04/28 14:45:39;;;;;;;2.58;2.38;;;;;;;;;;5088782;28;20608;-74
2023/04/28 14:48:09;;;;;;;0.90;0.90;;;;;;;;;;5088021;28;20204;-74
2023/04/28 14:50:36;;;;;;;1.30;1.20;;;;;;;;;;5088610;28;20228;-74